LIRFDTTA

Guest
Details From LIRF - Roma Fiumicino Leonardo Da Vinci
To DTTA - CARTHAGE
Flight Number -
Tags generated
Created
Modified
Stats Distance 312 nm / 578 km
Max Altitude 22,000 ft / 6,706 m
Waypoints 7
Social Downloads 20
Likes 0
Share VATSIM

Download

Looking for another format? Having issues loading an existing format? Contact us
Advertisement - Login to hide

Notes

Basic altitude profile: - Ascent Rate: 2500ft/min - Ascent Speed: 250kts - Cruise Altitude: 22000ft - Cruise Speed: 420kts - Descent Rate: 1500ft/min - Descent Speed: 250kts

Route

LIRF BETOT UL44 BULAR DTTA

ID Type Via Altitude Latitude Longitude Leg Dist Tot Dist Heading (true) Name
O LIRF APT - 0 ft / 0 m 41.81081˚ 12.25090˚ - 0 nm - Roma Fiumicino Leonardo Da Vinci
BETOT FIX - 22,000 ft / 6,706 m 40.38583˚ 11.63167˚ 90 nm 90 nm 198° / 198° -
VELEX FIX UL44 (AWY-HI) 22,000 ft / 6,706 m 39.96639˚ 11.45889˚ 26 nm 116 nm 198° / 197° -
LAGER FIX UL44 (AWY-HI) 22,000 ft / 6,706 m 38.99222˚ 11.06361˚ 61 nm 177 nm 198° / 197° -
ADAMI FIX UL44 (AWY-HI) 22,000 ft / 6,706 m 38.70472˚ 10.94889˚ 18 nm 195 nm 197° / 197° -
BULAR FIX UL44 (AWY-HI) 18,600 ft / 5,669 m 38.31306˚ 10.79444˚ 24 nm 220 nm 197° / 197° -
O DTTA APT - 0 ft / 0 m 36.85127˚ 10.23003˚ 91 nm 312 nm 197° / 197° CARTHAGE

Altitude Profile

Advertisement - Login to hide

Weather


0- 5 10 15 20 25 30 35+ Temperature / ° C

Clouds and Precipitation
Forecast for 2018-05-21 12:00 UTC. Updated 9 minutes ago

Ground ~20,000 ft ~40,000 ft Winds

LIRF

Details ICAO LIRF (FCO)
Name Roma Fiumicino Leonardo Da Vinci
Region Italy
Timezone Europe/Rome (UTC+2.0)
Stats Elevation 15 ft / 5 m (AMSL)
Location 41.810809° 12.250897°
Runways 3
Magnetic Variation 3.040° E

METAR

LIRF 211050Z 15005KT 110V190 9999 -DZ SCT030 23/14 Q1012 NOSIG

Decode

TAF

TAF LIRF 210500Z 2106/2212 VRB05KT 9999 SCT030 TEMPO 2106/2108 RA BECMG 2109/2111 25010KT TEMPO 2110/2115 4000 SHRA BECMG 2118/2120 VRB05KT TEMPO 2118/2121 4000 SHRA BECMG 2209/2211 18012KT

Decode

Departure Runways

ID Width Length Bearing (true) Bearing (mag) Surface Threshold Offset Overrun Length
07 148 ft / 45 m 10,835 ft / 3,302 m 69.67° 66.63° Asphalt 1,365 ft / 416 m 0 ft / 0 m
16L 197 ft / 60 m 12,832 ft / 3,911 m 162.67° 159.63° Asphalt 0 ft / 0 m 0 ft / 0 m
16R 197 ft / 60 m 12,822 ft / 3,908 m 162.66° 159.62° Asphalt 0 ft / 0 m 0 ft / 0 m
25 148 ft / 45 m 10,835 ft / 3,302 m 249.70° 246.66° Asphalt 0 ft / 0 m 0 ft / 0 m
34L 197 ft / 60 m 12,822 ft / 3,908 m 342.67° 339.63° Asphalt 1,053 ft / 321 m 0 ft / 0 m
34R 197 ft / 60 m 12,832 ft / 3,911 m 342.68° 339.64° Asphalt 0 ft / 0 m 0 ft / 0 m

DTTA

Details ICAO DTTA (TUN)
Name CARTHAGE
Region Tunisia
Timezone Africa/Tunis (UTC+1.0)
Stats Elevation 22 ft / 7 m (AMSL)
Location 36.851267° 10.230027°
Runways 2
Magnetic Variation 2.445° E

METAR

DTTA 211100Z 04004KT 320V100 9999 FEW020 24/17 Q1011 NOSIG

Decode

TAF

TAF DTTA 210529Z 2106/2206 22008KT 8000 RA SCT026 BKN036= TAF DTMB 210529Z 2106/2206 36006KT 8000 FEW020

Decode

Destination Runways

ID Width Length Bearing (true) Bearing (mag) Surface Threshold Offset Overrun Length
01 148 ft / 45 m 10,502 ft / 3,201 m 12.29° 9.85° Asphalt 0 ft / 0 m 197 ft / 60 m
11 148 ft / 45 m 9,345 ft / 2,848 m 112.55° 110.11° Asphalt 0 ft / 0 m 643 ft / 196 m
19 148 ft / 45 m 10,502 ft / 3,201 m 192.29° 189.85° Asphalt 0 ft / 0 m 197 ft / 60 m
29 148 ft / 45 m 9,345 ft / 2,848 m 292.57° 290.13° Asphalt 657 ft / 200 m 197 ft / 60 m

Approach Navaids

Runway Type Ident Frequency Range Bearing (true) Bearing (mag) Slope Elevation
01 Glidescope TBL 111.10 MHz 10 nm / 19 km 10.00° 7.56° 3.00° 22 ft / 7 m (AMSL)
01 DME TBL 111.10 MHz 18 nm / 33 km - - - 22 ft / 7 m (AMSL)
19 Localiser TSI 110.30 MHz 18 nm / 33 km 192.29° 189.84° - 13 ft / 4 m (AMSL)
19 Glidescope TSI 110.30 MHz 10 nm / 19 km 192.29° 189.84° 3.00° 22 ft / 7 m (AMSL)
29 Localiser TKE 108.50 MHz 18 nm / 33 km 292.54° 290.10° - 22 ft / 7 m (AMSL)
29 Glidescope TKE 108.50 MHz 10 nm / 19 km 292.56° 290.11° 3.00° 22 ft / 7 m (AMSL)
29 DME TKE 108.50 MHz 18 nm / 33 km - - - 22 ft / 7 m (AMSL)

Popular Alternatives